sensor_id;sensor_type;location;lat;lon;timestamp;temperature;humidity
58993;DHT22;44782;0.000;0.000;2023-04-15T00:00:21;16.20;54.40
58993;DHT22;44782;0.000;0.000;2023-04-15T00:02:37;16.20;54.40
58993;DHT22;44782;0.000;0.000;2023-04-15T00:04:52;16.20;54.40
58993;DHT22;44782;0.000;0.000;2023-04-15T00:07:08;16.20;54.40
58993;DHT22;44782;0.000;0.000;2023-04-15T00:09:24;16.20;54.40
58993;DHT22;44782;0.000;0.000;2023-04-15T00:11:40;16.20;54.40
58993;DHT22;44782;0.000;0.000;2023-04-15T00:13:55;16.20;54.40
58993;DHT22;44782;0.000;0.000;2023-04-15T00:16:11;16.20;54.40
58993;DHT22;44782;0.000;0.000;2023-04-15T00:18:26;16.20;54.40
58993;DHT22;44782;0.000;0.000;2023-04-15T00:20:43;16.20;54.40
58993;DHT22;44782;0.000;0.000;2023-04-15T00:22:59;16.20;54.40
58993;DHT22;44782;0.000;0.000;2023-04-15T00:25:15;16.10;54.40
58993;DHT22;44782;0.000;0.000;2023-04-15T00:27:31;16.10;54.40
58993;DHT22;44782;0.000;0.000;2023-04-15T00:29:46;16.10;54.30
58993;DHT22;44782;0.000;0.000;2023-04-15T00:32:02;16.20;54.40
58993;DHT22;44782;0.000;0.000;2023-04-15T00:34:18;16.10;54.30
58993;DHT22;44782;0.000;0.000;2023-04-15T00:36:33;16.10;54.40
58993;DHT22;44782;0.000;0.000;2023-04-15T00:38:50;16.10;55.00
58993;DHT22;44782;0.000;0.000;2023-04-15T00:41:05;16.10;54.30
58993;DHT22;44782;0.000;0.000;2023-04-15T00:43:22;16.10;54.30
58993;DHT22;44782;0.000;0.000;2023-04-15T00:45:37;16.10;54.40
58993;DHT22;44782;0.000;0.000;2023-04-15T00:47:53;16.10;54.40
58993;DHT22;44782;0.000;0.000;2023-04-15T00:50:11;16.10;54.40
58993;DHT22;44782;0.000;0.000;2023-04-15T00:52:27;16.10;54.30
58993;DHT22;44782;0.000;0.000;2023-04-15T00:54:42;16.10;54.40
58993;DHT22;44782;0.000;0.000;2023-04-15T00:56:58;16.10;54.40
58993;DHT22;44782;0.000;0.000;2023-04-15T00:59:16;16.10;54.40
58993;DHT22;44782;0.000;0.000;2023-04-15T01:01:36;16.10;54.40
58993;DHT22;44782;0.000;0.000;2023-04-15T01:03:54;16.00;54.30
58993;DHT22;44782;0.000;0.000;2023-04-15T01:06:10;16.00;54.30
58993;DHT22;44782;0.000;0.000;2023-04-15T01:08:29;16.00;54.40
58993;DHT22;44782;0.000;0.000;2023-04-15T01:10:46;16.00;54.30
58993;DHT22;44782;0.000;0.000;2023-04-15T01:13:02;16.00;54.30
58993;DHT22;44782;0.000;0.000;2023-04-15T01:15:18;16.00;54.30
58993;DHT22;44782;0.000;0.000;2023-04-15T01:17:35;16.00;54.30
58993;DHT22;44782;0.000;0.000;2023-04-15T01:19:51;16.00;54.30
58993;DHT22;44782;0.000;0.000;2023-04-15T01:22:07;16.00;54.40
58993;DHT22;44782;0.000;0.000;2023-04-15T01:24:23;16.00;54.30
58993;DHT22;44782;0.000;0.000;2023-04-15T01:26:40;16.00;54.30
58993;DHT22;44782;0.000;0.000;2023-04-15T01:28:56;16.00;54.30
58993;DHT22;44782;0.000;0.000;2023-04-15T01:31:13;16.00;54.40
58993;DHT22;44782;0.000;0.000;2023-04-15T01:33:29;16.00;54.30
58993;DHT22;44782;0.000;0.000;2023-04-15T01:35:44;16.00;54.30
58993;DHT22;44782;0.000;0.000;2023-04-15T01:38:08;16.00;54.30
58993;DHT22;44782;0.000;0.000;2023-04-15T01:40:24;16.00;54.30
58993;DHT22;44782;0.000;0.000;2023-04-15T01:42:40;15.90;54.30
58993;DHT22;44782;0.000;0.000;2023-04-15T01:44:59;15.90;54.30
58993;DHT22;44782;0.000;0.000;2023-04-15T01:47:14;15.90;54.30
58993;DHT22;44782;0.000;0.000;2023-04-15T01:49:30;15.90;54.30
58993;DHT22;44782;0.000;0.000;2023-04-15T01:51:46;15.90;54.30
58993;DHT22;44782;0.000;0.000;2023-04-15T01:54:02;15.90;54.30
58993;DHT22;44782;0.000;0.000;2023-04-15T01:56:18;15.90;54.30
58993;DHT22;44782;0.000;0.000;2023-04-15T01:58:34;15.90;54.30
58993;DHT22;44782;0.000;0.000;2023-04-15T02:00:50;15.90;54.40
58993;DHT22;44782;0.000;0.000;2023-04-15T02:03:05;15.90;54.40
58993;DHT22;44782;0.000;0.000;2023-04-15T02:05:21;15.90;54.30
58993;DHT22;44782;0.000;0.000;2023-04-15T02:10:02;15.90;54.40
58993;DHT22;44782;0.000;0.000;2023-04-15T02:12:18;15.90;54.40
58993;DHT22;44782;0.000;0.000;2023-04-15T02:14:35;15.90;54.40
58993;DHT22;44782;0.000;0.000;2023-04-15T02:16:51;15.90;54.40
58993;DHT22;44782;0.000;0.000;2023-04-15T02:19:06;15.90;54.40
58993;DHT22;44782;0.000;0.000;2023-04-15T02:21:22;15.90;54.40
58993;DHT22;44782;0.000;0.000;2023-04-15T02:23:38;15.90;54.40
58993;DHT22;44782;0.000;0.000;2023-04-15T02:25:53;15.80;54.40
58993;DHT22;44782;0.000;0.000;2023-04-15T02:28:09;15.80;54.40
58993;DHT22;44782;0.000;0.000;2023-04-15T02:30:25;15.80;54.40
58993;DHT22;44782;0.000;0.000;2023-04-15T02:32:41;15.90;54.40
58993;DHT22;44782;0.000;0.000;2023-04-15T02:35:03;15.80;54.30
58993;DHT22;44782;0.000;0.000;2023-04-15T02:37:19;15.80;54.30
58993;DHT22;44782;0.000;0.000;2023-04-15T02:39:35;15.80;54.40
58993;DHT22;44782;0.000;0.000;2023-04-15T02:41:51;15.80;54.40
58993;DHT22;44782;0.000;0.000;2023-04-15T02:44:07;15.80;54.40
58993;DHT22;44782;0.000;0.000;2023-04-15T02:46:24;15.80;54.40
58993;DHT22;44782;0.000;0.000;2023-04-15T02:48:39;15.80;54.40
58993;DHT22;44782;0.000;0.000;2023-04-15T02:51:15;15.80;54.40
58993;DHT22;44782;0.000;0.000;2023-04-15T02:53:31;15.80;54.20
58993;DHT22;44782;0.000;0.000;2023-04-15T02:55:46;15.80;54.40
58993;DHT22;44782;0.000;0.000;2023-04-15T02:58:02;15.80;54.40
58993;DHT22;44782;0.000;0.000;2023-04-15T03:00:18;15.80;54.40
58993;DHT22;44782;0.000;0.000;2023-04-15T03:02:37;15.80;54.50
58993;DHT22;44782;0.000;0.000;2023-04-15T03:04:54;15.80;54.40
58993;DHT22;44782;0.000;0.000;2023-04-15T03:07:09;15.80;54.40
58993;DHT22;44782;0.000;0.000;2023-04-15T03:09:25;15.80;54.40
58993;DHT22;44782;0.000;0.000;2023-04-15T03:11:41;15.80;54.50
58993;DHT22;44782;0.000;0.000;2023-04-15T03:13:57;15.80;54.50
58993;DHT22;44782;0.000;0.000;2023-04-15T03:16:13;15.70;54.40
58993;DHT22;44782;0.000;0.000;2023-04-15T03:18:28;15.80;54.50
58993;DHT22;44782;0.000;0.000;2023-04-15T03:20:44;15.70;54.40
58993;DHT22;44782;0.000;0.000;2023-04-15T03:23:00;15.70;54.40
58993;DHT22;44782;0.000;0.000;2023-04-15T03:25:15;15.80;54.50
58993;DHT22;44782;0.000;0.000;2023-04-15T03:27:31;15.80;54.50
58993;DHT22;44782;0.000;0.000;2023-04-15T03:29:47;15.80;54.50
58993;DHT22;44782;0.000;0.000;2023-04-15T03:32:03;15.80;54.50
58993;DHT22;44782;0.000;0.000;2023-04-15T03:34:19;15.80;54.50
58993;DHT22;44782;0.000;0.000;2023-04-15T03:36:35;15.80;54.60
58993;DHT22;44782;0.000;0.000;2023-04-15T03:38:51;15.80;54.50
58993;DHT22;44782;0.000;0.000;2023-04-15T03:41:07;15.80;54.50
58993;DHT22;44782;0.000;0.000;2023-04-15T03:43:23;15.80;54.50
58993;DHT22;44782;0.000;0.000;2023-04-15T03:45:39;15.80;54.50
58993;DHT22;44782;0.000;0.000;2023-04-15T03:47:55;15.90;54.60
58993;DHT22;44782;0.000;0.000;2023-04-15T03:50:11;15.90;54.50
58993;DHT22;44782;0.000;0.000;2023-04-15T03:52:27;15.90;54.50
58993;DHT22;44782;0.000;0.000;2023-04-15T03:54:42;15.90;54.50
58993;DHT22;44782;0.000;0.000;2023-04-15T03:56:58;15.90;54.50
58993;DHT22;44782;0.000;0.000;2023-04-15T03:59:13;15.90;54.50
58993;DHT22;44782;0.000;0.000;2023-04-15T04:01:29;16.00;54.50
58993;DHT22;44782;0.000;0.000;2023-04-15T04:03:45;16.00;54.50
58993;DHT22;44782;0.000;0.000;2023-04-15T04:06:01;16.00;54.50
58993;DHT22;44782;0.000;0.000;2023-04-15T04:08:17;16.00;54.50
58993;DHT22;44782;0.000;0.000;2023-04-15T04:10:34;16.00;54.50
58993;DHT22;44782;0.000;0.000;2023-04-15T04:12:49;16.00;54.50
58993;DHT22;44782;0.000;0.000;2023-04-15T04:15:05;16.10;54.50
58993;DHT22;44782;0.000;0.000;2023-04-15T04:17:21;16.10;54.50
58993;DHT22;44782;0.000;0.000;2023-04-15T04:19:37;16.10;54.50
58993;DHT22;44782;0.000;0.000;2023-04-15T04:21:53;16.10;54.50
58993;DHT22;44782;0.000;0.000;2023-04-15T04:24:08;16.10;54.40
58993;DHT22;44782;0.000;0.000;2023-04-15T04:26:24;16.20;54.50
58993;DHT22;44782;0.000;0.000;2023-04-15T04:28:40;16.20;54.40
58993;DHT22;44782;0.000;0.000;2023-04-15T04:30:56;16.20;54.40
58993;DHT22;44782;0.000;0.000;2023-04-15T04:33:12;16.20;54.30
58993;DHT22;44782;0.000;0.000;2023-04-15T04:35:27;16.30;54.30
58993;DHT22;44782;0.000;0.000;2023-04-15T04:37:43;16.30;54.30
58993;DHT22;44782;0.000;0.000;2023-04-15T04:39:59;16.30;54.20
58993;DHT22;44782;0.000;0.000;2023-04-15T04:42:14;16.30;54.20
58993;DHT22;44782;0.000;0.000;2023-04-15T04:44:30;16.40;54.20
58993;DHT22;44782;0.000;0.000;2023-04-15T04:46:46;16.40;54.20
58993;DHT22;44782;0.000;0.000;2023-04-15T04:49:01;16.40;54.10
58993;DHT22;44782;0.000;0.000;2023-04-15T04:51:17;16.40;54.10
58993;DHT22;44782;0.000;0.000;2023-04-15T04:53:33;16.40;54.10
58993;DHT22;44782;0.000;0.000;2023-04-15T04:55:49;16.40;54.00
58993;DHT22;44782;0.000;0.000;2023-04-15T04:58:04;16.40;54.00
58993;DHT22;44782;0.000;0.000;2023-04-15T05:00:20;16.40;54.00
58993;DHT22;44782;0.000;0.000;2023-04-15T05:02:37;16.40;54.00
58993;DHT22;44782;0.000;0.000;2023-04-15T05:04:53;16.40;54.00
58993;DHT22;44782;0.000;0.000;2023-04-15T05:07:09;16.40;54.00
58993;DHT22;44782;0.000;0.000;2023-04-15T05:09:25;16.40;54.00
58993;DHT22;44782;0.000;0.000;2023-04-15T05:11:41;16.40;54.10
58993;DHT22;44782;0.000;0.000;2023-04-15T05:13:56;16.40;54.00
58993;DHT22;44782;0.000;0.000;2023-04-15T05:16:14;16.40;54.10
58993;DHT22;44782;0.000;0.000;2023-04-15T05:18:29;16.40;54.10
58993;DHT22;44782;0.000;0.000;2023-04-15T05:20:45;16.40;54.10
58993;DHT22;44782;0.000;0.000;2023-04-15T05:23:01;16.40;54.10
58993;DHT22;44782;0.000;0.000;2023-04-15T05:25:17;16.40;54.10
58993;DHT22;44782;0.000;0.000;2023-04-15T05:27:33;16.40;54.10
58993;DHT22;44782;0.000;0.000;2023-04-15T05:29:49;16.40;54.10
58993;DHT22;44782;0.000;0.000;2023-04-15T05:32:05;16.40;54.10
58993;DHT22;44782;0.000;0.000;2023-04-15T05:34:21;16.40;54.10
58993;DHT22;44782;0.000;0.000;2023-04-15T05:36:37;16.40;54.10
58993;DHT22;44782;0.000;0.000;2023-04-15T05:38:52;16.40;54.10
58993;DHT22;44782;0.000;0.000;2023-04-15T05:41:08;16.40;54.10
58993;DHT22;44782;0.000;0.000;2023-04-15T05:43:24;16.40;54.10
58993;DHT22;44782;0.000;0.000;2023-04-15T05:45:39;16.40;54.10
58993;DHT22;44782;0.000;0.000;2023-04-15T05:47:55;16.40;54.10
58993;DHT22;44782;0.000;0.000;2023-04-15T05:50:11;16.40;54.20
58993;DHT22;44782;0.000;0.000;2023-04-15T05:52:26;16.30;54.10
58993;DHT22;44782;0.000;0.000;2023-04-15T05:54:43;16.30;54.10
58993;DHT22;44782;0.000;0.000;2023-04-15T05:56:58;16.30;54.10
58993;DHT22;44782;0.000;0.000;2023-04-15T05:59:15;16.30;54.10
58993;DHT22;44782;0.000;0.000;2023-04-15T06:01:32;16.30;54.10
58993;DHT22;44782;0.000;0.000;2023-04-15T06:03:48;16.30;54.10
58993;DHT22;44782;0.000;0.000;2023-04-15T06:06:04;16.30;54.10
58993;DHT22;44782;0.000;0.000;2023-04-15T06:08:20;16.30;54.10
58993;DHT22;44782;0.000;0.000;2023-04-15T06:10:36;16.30;54.10
58993;DHT22;44782;0.000;0.000;2023-04-15T06:12:52;16.30;54.10
58993;DHT22;44782;0.000;0.000;2023-04-15T06:15:08;16.30;54.10
58993;DHT22;44782;0.000;0.000;2023-04-15T06:17:27;16.30;54.10
58993;DHT22;44782;0.000;0.000;2023-04-15T06:19:42;16.30;54.10
58993;DHT22;44782;0.000;0.000;2023-04-15T06:21:58;16.20;54.10
58993;DHT22;44782;0.000;0.000;2023-04-15T06:24:14;16.20;54.10
58993;DHT22;44782;0.000;0.000;2023-04-15T06:26:29;16.20;54.10
58993;DHT22;44782;0.000;0.000;2023-04-15T06:28:45;16.20;54.10
58993;DHT22;44782;0.000;0.000;2023-04-15T06:31:01;16.20;54.10
58993;DHT22;44782;0.000;0.000;2023-04-15T06:33:16;16.20;54.10
58993;DHT22;44782;0.000;0.000;2023-04-15T06:35:32;16.20;54.10
58993;DHT22;44782;0.000;0.000;2023-04-15T06:37:48;16.20;54.10
58993;DHT22;44782;0.000;0.000;2023-04-15T06:40:04;16.20;54.10
58993;DHT22;44782;0.000;0.000;2023-04-15T06:42:20;16.20;54.10
58993;DHT22;44782;0.000;0.000;2023-04-15T06:44:36;16.20;54.10
58993;DHT22;44782;0.000;0.000;2023-04-15T06:46:51;16.20;54.10
58993;DHT22;44782;0.000;0.000;2023-04-15T06:49:07;16.20;54.10
58993;DHT22;44782;0.000;0.000;2023-04-15T06:51:23;16.20;54.10
58993;DHT22;44782;0.000;0.000;2023-04-15T06:53:39;16.10;54.10
58993;DHT22;44782;0.000;0.000;2023-04-15T06:55:56;16.10;54.10
58993;DHT22;44782;0.000;0.000;2023-04-15T06:58:12;16.10;54.10
58993;DHT22;44782;0.000;0.000;2023-04-15T07:00:28;16.10;54.10
58993;DHT22;44782;0.000;0.000;2023-04-15T07:02:43;16.10;54.10
58993;DHT22;44782;0.000;0.000;2023-04-15T07:04:59;16.10;54.10
58993;DHT22;44782;0.000;0.000;2023-04-15T07:07:15;16.10;54.20
58993;DHT22;44782;0.000;0.000;2023-04-15T07:09:31;16.10;54.20
58993;DHT22;44782;0.000;0.000;2023-04-15T07:11:48;16.10;54.20
58993;DHT22;44782;0.000;0.000;2023-04-15T07:14:04;16.10;54.20
58993;DHT22;44782;0.000;0.000;2023-04-15T07:16:19;16.10;54.20
58993;DHT22;44782;0.000;0.000;2023-04-15T07:18:36;16.10;54.20
58993;DHT22;44782;0.000;0.000;2023-04-15T07:20:51;16.10;54.20
58993;DHT22;44782;0.000;0.000;2023-04-15T07:23:07;16.10;54.30
58993;DHT22;44782;0.000;0.000;2023-04-15T07:25:23;16.10;54.20
58993;DHT22;44782;0.000;0.000;2023-04-15T07:27:39;16.00;54.20
58993;DHT22;44782;0.000;0.000;2023-04-15T07:29:54;16.00;54.20
58993;DHT22;44782;0.000;0.000;2023-04-15T07:32:10;16.00;54.20
58993;DHT22;44782;0.000;0.000;2023-04-15T07:34:26;16.00;54.30
58993;DHT22;44782;0.000;0.000;2023-04-15T07:36:43;16.00;54.30
58993;DHT22;44782;0.000;0.000;2023-04-15T07:38:58;16.00;54.20
58993;DHT22;44782;0.000;0.000;2023-04-15T07:41:16;16.00;54.30
58993;DHT22;44782;0.000;0.000;2023-04-15T07:43:32;16.00;54.30
58993;DHT22;44782;0.000;0.000;2023-04-15T07:45:48;16.00;54.30
58993;DHT22;44782;0.000;0.000;2023-04-15T07:48:04;16.00;54.30
58993;DHT22;44782;0.000;0.000;2023-04-15T07:50:21;16.00;54.30
58993;DHT22;44782;0.000;0.000;2023-04-15T07:52:37;16.00;54.30
58993;DHT22;44782;0.000;0.000;2023-04-15T07:54:56;16.00;54.30
58993;DHT22;44782;0.000;0.000;2023-04-15T07:57:12;16.00;54.30
58993;DHT22;44782;0.000;0.000;2023-04-15T07:59:28;16.00;54.30
58993;DHT22;44782;0.000;0.000;2023-04-15T08:01:45;16.00;54.30
58993;DHT22;44782;0.000;0.000;2023-04-15T08:04:01;16.10;54.30
58993;DHT22;44782;0.000;0.000;2023-04-15T08:06:17;16.10;54.30
58993;DHT22;44782;0.000;0.000;2023-04-15T08:08:33;16.10;54.40
58993;DHT22;44782;0.000;0.000;2023-04-15T08:10:49;16.10;54.30
58993;DHT22;44782;0.000;0.000;2023-04-15T08:13:05;16.10;54.30
58993;DHT22;44782;0.000;0.000;2023-04-15T08:15:21;16.10;54.30
58993;DHT22;44782;0.000;0.000;2023-04-15T08:17:36;16.10;54.30
58993;DHT22;44782;0.000;0.000;2023-04-15T08:19:52;16.20;54.40
58993;DHT22;44782;0.000;0.000;2023-04-15T08:22:09;16.20;54.40
58993;DHT22;44782;0.000;0.000;2023-04-15T08:24:26;16.20;54.30
58993;DHT22;44782;0.000;0.000;2023-04-15T08:26:42;16.30;54.30
58993;DHT22;44782;0.000;0.000;2023-04-15T08:28:57;16.30;54.20
58993;DHT22;44782;0.000;0.000;2023-04-15T08:31:14;16.30;54.20
58993;DHT22;44782;0.000;0.000;2023-04-15T08:33:30;16.30;54.20
58993;DHT22;44782;0.000;0.000;2023-04-15T08:35:47;16.30;54.10
58993;DHT22;44782;0.000;0.000;2023-04-15T08:38:02;16.40;54.20
58993;DHT22;44782;0.000;0.000;2023-04-15T08:40:19;16.40;54.10
58993;DHT22;44782;0.000;0.000;2023-04-15T08:42:42;16.40;54.10
58993;DHT22;44782;0.000;0.000;2023-04-15T08:44:59;16.40;54.10
58993;DHT22;44782;0.000;0.000;2023-04-15T08:47:19;16.40;54.10
58993;DHT22;44782;0.000;0.000;2023-04-15T08:49:39;16.40;54.00
58993;DHT22;44782;0.000;0.000;2023-04-15T08:51:58;16.40;54.10
58993;DHT22;44782;0.000;0.000;2023-04-15T08:54:14;16.40;54.00
58993;DHT22;44782;0.000;0.000;2023-04-15T08:56:30;16.40;54.00
58993;DHT22;44782;0.000;0.000;2023-04-15T08:58:49;16.40;54.00
58993;DHT22;44782;0.000;0.000;2023-04-15T09:01:05;16.40;54.00
58993;DHT22;44782;0.000;0.000;2023-04-15T09:03:21;16.40;54.00
58993;DHT22;44782;0.000;0.000;2023-04-15T09:05:38;16.40;54.00
58993;DHT22;44782;0.000;0.000;2023-04-15T09:07:53;16.40;54.10
58993;DHT22;44782;0.000;0.000;2023-04-15T09:10:09;16.40;54.00
58993;DHT22;44782;0.000;0.000;2023-04-15T09:12:25;16.40;54.00
58993;DHT22;44782;0.000;0.000;2023-04-15T09:14:47;16.40;54.00
58993;DHT22;44782;0.000;0.000;2023-04-15T09:17:04;16.40;54.00
58993;DHT22;44782;0.000;0.000;2023-04-15T09:19:21;16.40;54.00
58993;DHT22;44782;0.000;0.000;2023-04-15T09:21:37;16.40;54.00
58993;DHT22;44782;0.000;0.000;2023-04-15T09:23:58;16.40;54.00
58993;DHT22;44782;0.000;0.000;2023-04-15T09:26:15;16.40;54.00
58993;DHT22;44782;0.000;0.000;2023-04-15T09:28:31;16.40;54.00
58993;DHT22;44782;0.000;0.000;2023-04-15T09:30:57;16.40;54.00
58993;DHT22;44782;0.000;0.000;2023-04-15T09:33:13;16.40;54.00
58993;DHT22;44782;0.000;0.000;2023-04-15T09:35:29;16.40;54.00
58993;DHT22;44782;0.000;0.000;2023-04-15T09:37:45;16.40;54.00
58993;DHT22;44782;0.000;0.000;2023-04-15T09:40:01;16.40;54.00
58993;DHT22;44782;0.000;0.000;2023-04-15T09:42:17;16.40;54.00
58993;DHT22;44782;0.000;0.000;2023-04-15T09:44:38;16.40;54.00
58993;DHT22;44782;0.000;0.000;2023-04-15T09:46:54;16.40;54.70
58993;DHT22;44782;0.000;0.000;2023-04-15T09:49:11;16.40;53.90
58993;DHT22;44782;0.000;0.000;2023-04-15T09:51:34;16.40;53.90
58993;DHT22;44782;0.000;0.000;2023-04-15T09:53:53;16.40;53.80
58993;DHT22;44782;0.000;0.000;2023-04-15T09:56:09;16.40;54.30
58993;DHT22;44782;0.000;0.000;2023-04-15T09:58:27;16.40;53.90
58993;DHT22;44782;0.000;0.000;2023-04-15T10:00:44;16.40;53.90
58993;DHT22;44782;0.000;0.000;2023-04-15T10:03:04;16.40;53.90
58993;DHT22;44782;0.000;0.000;2023-04-15T10:05:20;16.40;53.90
58993;DHT22;44782;0.000;0.000;2023-04-15T10:07:37;16.40;53.90
58993;DHT22;44782;0.000;0.000;2023-04-15T10:09:59;16.40;54.60
58993;DHT22;44782;0.000;0.000;2023-04-15T10:12:16;16.40;53.80
58993;DHT22;44782;0.000;0.000;2023-04-15T10:14:34;16.40;53.90
58993;DHT22;44782;0.000;0.000;2023-04-15T10:16:50;16.40;53.90
58993;DHT22;44782;0.000;0.000;2023-04-15T10:19:08;16.40;53.80
58993;DHT22;44782;0.000;0.000;2023-04-15T10:21:25;16.40;53.90
58993;DHT22;44782;0.000;0.000;2023-04-15T10:23:41;16.40;53.90
58993;DHT22;44782;0.000;0.000;2023-04-15T10:25:57;16.40;53.90
58993;DHT22;44782;0.000;0.000;2023-04-15T10:28:15;16.40;53.90
58993;DHT22;44782;0.000;0.000;2023-04-15T10:30:32;16.40;53.90
58993;DHT22;44782;0.000;0.000;2023-04-15T10:32:48;16.40;53.90
58993;DHT22;44782;0.000;0.000;2023-04-15T10:35:05;16.40;54.00
58993;DHT22;44782;0.000;0.000;2023-04-15T10:37:32;16.40;54.20
58993;DHT22;44782;0.000;0.000;2023-04-15T10:39:48;16.40;54.20
58993;DHT22;44782;0.000;0.000;2023-04-15T10:42:17;16.40;54.40
58993;DHT22;44782;0.000;0.000;2023-04-15T10:44:43;16.50;55.50
58993;DHT22;44782;0.000;0.000;2023-04-15T10:46:59;16.50;54.70
58993;DHT22;44782;0.000;0.000;2023-04-15T10:49:16;16.50;54.90
58993;DHT22;44782;0.000;0.000;2023-04-15T10:51:48;16.50;54.70
58993;DHT22;44782;0.000;0.000;2023-04-15T10:54:11;16.50;54.60
58993;DHT22;44782;0.000;0.000;2023-04-15T10:56:28;16.50;55.10
58993;DHT22;44782;0.000;0.000;2023-04-15T10:58:45;16.50;54.90
58993;DHT22;44782;0.000;0.000;2023-04-15T11:01:01;16.50;55.10
58993;DHT22;44782;0.000;0.000;2023-04-15T11:03:36;16.50;54.70
58993;DHT22;44782;0.000;0.000;2023-04-15T11:05:53;16.60;54.70
58993;DHT22;44782;0.000;0.000;2023-04-15T11:08:11;16.50;54.70
58993;DHT22;44782;0.000;0.000;2023-04-15T11:12:46;16.50;54.50
58993;DHT22;44782;0.000;0.000;2023-04-15T11:17:39;16.50;54.30
58993;DHT22;44782;0.000;0.000;2023-04-15T11:19:55;16.50;54.70
58993;DHT22;44782;0.000;0.000;2023-04-15T11:22:11;16.50;54.60
58993;DHT22;44782;0.000;0.000;2023-04-15T11:24:27;16.50;54.50
58993;DHT22;44782;0.000;0.000;2023-04-15T11:26:43;16.50;54.60
58993;DHT22;44782;0.000;0.000;2023-04-15T11:28:58;16.50;54.60
58993;DHT22;44782;0.000;0.000;2023-04-15T11:31:16;16.60;54.70
58993;DHT22;44782;0.000;0.000;2023-04-15T11:33:34;16.60;54.70
58993;DHT22;44782;0.000;0.000;2023-04-15T11:35:52;16.60;54.70
58993;DHT22;44782;0.000;0.000;2023-04-15T11:38:13;16.60;54.90
58993;DHT22;44782;0.000;0.000;2023-04-15T11:40:29;16.60;55.20
58993;DHT22;44782;0.000;0.000;2023-04-15T11:42:45;16.60;55.10
58993;DHT22;44782;0.000;0.000;2023-04-15T11:45:08;16.60;55.20
58993;DHT22;44782;0.000;0.000;2023-04-15T11:47:25;16.70;55.30
58993;DHT22;44782;0.000;0.000;2023-04-15T11:49:43;16.70;55.40
58993;DHT22;44782;0.000;0.000;2023-04-15T11:51:59;16.70;55.60
58993;DHT22;44782;0.000;0.000;2023-04-15T11:54:18;16.80;55.70
58993;DHT22;44782;0.000;0.000;2023-04-15T11:56:34;16.80;55.80
58993;DHT22;44782;0.000;0.000;2023-04-15T11:58:57;16.90;55.80
58993;DHT22;44782;0.000;0.000;2023-04-15T12:01:17;16.80;55.90
58993;DHT22;44782;0.000;0.000;2023-04-15T12:03:39;16.90;55.80
58993;DHT22;44782;0.000;0.000;2023-04-15T12:06:15;16.90;55.90
58993;DHT22;44782;0.000;0.000;2023-04-15T12:11:03;17.10;56.10
58993;DHT22;44782;0.000;0.000;2023-04-15T12:13:19;17.00;55.80
58993;DHT22;44782;0.000;0.000;2023-04-15T12:15:37;17.10;55.80
58993;DHT22;44782;0.000;0.000;2023-04-15T12:17:53;17.20;55.80
58993;DHT22;44782;0.000;0.000;2023-04-15T12:20:10;17.10;55.70
58993;DHT22;44782;0.000;0.000;2023-04-15T12:22:28;17.20;55.70
58993;DHT22;44782;0.000;0.000;2023-04-15T12:24:44;17.20;55.70
58993;DHT22;44782;0.000;0.000;2023-04-15T12:27:06;17.30;55.70
58993;DHT22;44782;0.000;0.000;2023-04-15T12:29:29;17.30;55.70
58993;DHT22;44782;0.000;0.000;2023-04-15T12:31:57;17.30;55.70
58993;DHT22;44782;0.000;0.000;2023-04-15T12:34:13;17.30;55.60
58993;DHT22;44782;0.000;0.000;2023-04-15T12:36:30;17.40;55.90
58993;DHT22;44782;0.000;0.000;2023-04-15T12:38:50;17.30;55.50
58993;DHT22;44782;0.000;0.000;2023-04-15T12:41:06;17.30;55.50
58993;DHT22;44782;0.000;0.000;2023-04-15T12:43:22;17.40;55.40
58993;DHT22;44782;0.000;0.000;2023-04-15T12:45:38;17.40;55.40
58993;DHT22;44782;0.000;0.000;2023-04-15T12:47:53;17.40;55.30
58993;DHT22;44782;0.000;0.000;2023-04-15T12:50:09;17.40;55.30
58993;DHT22;44782;0.000;0.000;2023-04-15T12:52:25;17.40;55.30
58993;DHT22;44782;0.000;0.000;2023-04-15T12:54:40;17.40;55.30
58993;DHT22;44782;0.000;0.000;2023-04-15T12:56:57;17.50;55.30
58993;DHT22;44782;0.000;0.000;2023-04-15T12:59:13;17.40;55.20
58993;DHT22;44782;0.000;0.000;2023-04-15T13:01:29;17.50;55.20
58993;DHT22;44782;0.000;0.000;2023-04-15T13:03:45;17.40;55.10
58993;DHT22;44782;0.000;0.000;2023-04-15T13:06:01;17.40;55.10
58993;DHT22;44782;0.000;0.000;2023-04-15T13:08:19;17.50;55.20
58993;DHT22;44782;0.000;0.000;2023-04-15T13:10:35;17.40;55.10
58993;DHT22;44782;0.000;0.000;2023-04-15T13:12:53;17.50;55.10
58993;DHT22;44782;0.000;0.000;2023-04-15T13:15:11;17.50;55.10
58993;DHT22;44782;0.000;0.000;2023-04-15T13:17:27;17.50;55.10
58993;DHT22;44782;0.000;0.000;2023-04-15T13:19:43;17.50;55.10
58993;DHT22;44782;0.000;0.000;2023-04-15T13:21:58;17.50;55.00
58993;DHT22;44782;0.000;0.000;2023-04-15T13:24:14;17.50;55.10
58993;DHT22;44782;0.000;0.000;2023-04-15T13:26:30;17.50;55.00
58993;DHT22;44782;0.000;0.000;2023-04-15T13:28:46;17.50;55.00
58993;DHT22;44782;0.000;0.000;2023-04-15T13:31:02;17.50;55.00
58993;DHT22;44782;0.000;0.000;2023-04-15T13:33:17;17.50;54.90
58993;DHT22;44782;0.000;0.000;2023-04-15T13:35:33;17.50;54.90
58993;DHT22;44782;0.000;0.000;2023-04-15T13:37:49;17.50;54.90
58993;DHT22;44782;0.000;0.000;2023-04-15T13:40:05;17.50;54.90
58993;DHT22;44782;0.000;0.000;2023-04-15T13:42:22;17.50;54.90
58993;DHT22;44782;0.000;0.000;2023-04-15T13:44:38;17.50;54.90
58993;DHT22;44782;0.000;0.000;2023-04-15T13:46:54;17.50;54.90
58993;DHT22;44782;0.000;0.000;2023-04-15T13:49:09;17.50;54.90
58993;DHT22;44782;0.000;0.000;2023-04-15T13:51:25;17.50;54.90
58993;DHT22;44782;0.000;0.000;2023-04-15T13:53:41;17.50;54.90
58993;DHT22;44782;0.000;0.000;2023-04-15T13:55:57;17.50;54.90
58993;DHT22;44782;0.000;0.000;2023-04-15T13:58:12;17.50;54.90
58993;DHT22;44782;0.000;0.000;2023-04-15T14:00:28;17.50;54.90
58993;DHT22;44782;0.000;0.000;2023-04-15T14:02:44;17.50;54.90
58993;DHT22;44782;0.000;0.000;2023-04-15T14:05:00;17.50;54.90
58993;DHT22;44782;0.000;0.000;2023-04-15T14:07:16;17.50;55.60
58993;DHT22;44782;0.000;0.000;2023-04-15T14:09:32;17.50;54.80
58993;DHT22;44782;0.000;0.000;2023-04-15T14:11:47;17.50;54.90
58993;DHT22;44782;0.000;0.000;2023-04-15T14:14:03;17.50;54.90
58993;DHT22;44782;0.000;0.000;2023-04-15T14:16:19;17.40;54.80
58993;DHT22;44782;0.000;0.000;2023-04-15T14:18:35;17.50;54.90
58993;DHT22;44782;0.000;0.000;2023-04-15T14:20:51;17.50;54.90
58993;DHT22;44782;0.000;0.000;2023-04-15T14:23:07;17.40;54.80
58993;DHT22;44782;0.000;0.000;2023-04-15T14:25:23;17.40;54.80
58993;DHT22;44782;0.000;0.000;2023-04-15T14:27:39;17.50;54.80
58993;DHT22;44782;0.000;0.000;2023-04-15T14:29:54;17.40;54.80
58993;DHT22;44782;0.000;0.000;2023-04-15T14:32:12;17.40;54.80
58993;DHT22;44782;0.000;0.000;2023-04-15T14:34:27;17.40;54.80
58993;DHT22;44782;0.000;0.000;2023-04-15T14:36:43;17.40;54.70
58993;DHT22;44782;0.000;0.000;2023-04-15T14:38:59;17.40;54.70
58993;DHT22;44782;0.000;0.000;2023-04-15T14:41:15;17.50;54.70
58993;DHT22;44782;0.000;0.000;2023-04-15T14:43:30;17.50;55.50
58993;DHT22;44782;0.000;0.000;2023-04-15T14:45:46;17.40;54.70